Omidiyeh, Iran
Current Conditions -  °F | °C
As of 8:00 PM on Friday 21 Nov 2014 (Local Time) from OIAG Reporting Station
Broken Clouds Broken Clouds  
Wind Chill: 64°   Ceiling: 10000
Heat Index: 64°   Visibility: 6mi
Dew Point: 54°   Wind: 2mph
Humidity: 68%   Direction: 320°NW
Pressure: 30.06"   Gusts: NA
Location:  30.75°N, 49.71°E
Report Text: OIAG 211700Z 32002KT 9999 SCT040 BKN100 18/12 Q1018
Loading
Personal Weather Stations






























Interactive Weather Map New forecast layout! Learn more

10-Day Weather Forecast

Advertisements
Track Severe Weather on mobile